sensor_id;sensor_type;location;lat;lon;timestamp;temperature;humidity
77305;DHT22;66364;52.622;7.746;2023-06-19T00:01:53;23.20;29.60
77305;DHT22;66364;52.622;7.746;2023-06-19T00:03:55;23.30;29.90
77305;DHT22;66364;52.622;7.746;2023-06-19T00:05:55;23.20;29.50
77305;DHT22;66364;52.622;7.746;2023-06-19T00:07:57;23.20;29.70
77305;DHT22;66364;52.622;7.746;2023-06-19T00:09:57;23.20;29.60
77305;DHT22;66364;52.622;7.746;2023-06-19T00:11:58;23.20;29.50
77305;DHT22;66364;52.622;7.746;2023-06-19T00:13:59;23.20;29.50
77305;DHT22;66364;52.622;7.746;2023-06-19T00:16:00;23.20;29.60
77305;DHT22;66364;52.622;7.746;2023-06-19T00:18:01;23.10;29.70
77305;DHT22;66364;52.622;7.746;2023-06-19T00:20:07;23.10;30.20
77305;DHT22;66364;52.622;7.746;2023-06-19T00:22:05;23.00;30.00
77305;DHT22;66364;52.622;7.746;2023-06-19T00:24:06;23.00;30.00
77305;DHT22;66364;52.622;7.746;2023-06-19T00:26:07;23.00;30.20
77305;DHT22;66364;52.622;7.746;2023-06-19T00:28:08;23.00;30.00
77305;DHT22;66364;52.622;7.746;2023-06-19T00:30:09;22.90;30.00
77305;DHT22;66364;52.622;7.746;2023-06-19T00:32:10;22.90;31.20
77305;DHT22;66364;52.622;7.746;2023-06-19T00:34:11;22.90;30.60
77305;DHT22;66364;52.622;7.746;2023-06-19T00:36:15;22.90;30.90
77305;DHT22;66364;52.622;7.746;2023-06-19T00:38:16;22.90;30.90
77305;DHT22;66364;52.622;7.746;2023-06-19T00:40:26;22.80;31.50
77305;DHT22;66364;52.622;7.746;2023-06-19T00:42:27;22.70;31.50
77305;DHT22;66364;52.622;7.746;2023-06-19T00:44:28;22.60;32.00
77305;DHT22;66364;52.622;7.746;2023-06-19T00:46:29;22.70;32.60
77305;DHT22;66364;52.622;7.746;2023-06-19T00:48:31;22.60;34.10
77305;DHT22;66364;52.622;7.746;2023-06-19T00:50:33;22.60;32.90
77305;DHT22;66364;52.622;7.746;2023-06-19T00:52:34;22.60;32.90
77305;DHT22;66364;52.622;7.746;2023-06-19T00:54:35;22.60;33.10
77305;DHT22;66364;52.622;7.746;2023-06-19T00:56:37;22.60;32.80
77305;DHT22;66364;52.622;7.746;2023-06-19T00:58:39;22.60;32.60
77305;DHT22;66364;52.622;7.746;2023-06-19T01:00:40;22.60;32.70
77305;DHT22;66364;52.622;7.746;2023-06-19T01:02:41;22.70;33.00
77305;DHT22;66364;52.622;7.746;2023-06-19T01:04:42;22.70;33.10
77305;DHT22;66364;52.622;7.746;2023-06-19T01:09:05;22.60;33.10
77305;DHT22;66364;52.622;7.746;2023-06-19T01:11:09;22.60;33.90
77305;DHT22;66364;52.622;7.746;2023-06-19T01:13:15;22.60;34.30
77305;DHT22;66364;52.622;7.746;2023-06-19T01:15:15;22.60;35.20
77305;DHT22;66364;52.622;7.746;2023-06-19T01:17:16;22.60;34.40
77305;DHT22;66364;52.622;7.746;2023-06-19T01:19:21;22.50;34.90
77305;DHT22;66364;52.622;7.746;2023-06-19T01:21:22;22.60;34.40
77305;DHT22;66364;52.622;7.746;2023-06-19T01:23:23;22.50;35.00
77305;DHT22;66364;52.622;7.746;2023-06-19T01:25:24;22.30;35.10
77305;DHT22;66364;52.622;7.746;2023-06-19T01:27:26;22.30;36.20
77305;DHT22;66364;52.622;7.746;2023-06-19T01:29:28;22.40;35.60
77305;DHT22;66364;52.622;7.746;2023-06-19T01:31:35;22.40;36.10
77305;DHT22;66364;52.622;7.746;2023-06-19T01:33:38;22.40;35.60
77305;DHT22;66364;52.622;7.746;2023-06-19T01:35:42;22.40;36.60
77305;DHT22;66364;52.622;7.746;2023-06-19T01:37:44;22.50;36.00
77305;DHT22;66364;52.622;7.746;2023-06-19T01:39:45;22.40;36.00
77305;DHT22;66364;52.622;7.746;2023-06-19T01:41:47;22.40;36.20
77305;DHT22;66364;52.622;7.746;2023-06-19T01:43:49;22.40;36.50
77305;DHT22;66364;52.622;7.746;2023-06-19T01:45:50;22.40;36.70
77305;DHT22;66364;52.622;7.746;2023-06-19T01:47:53;22.40;37.20
77305;DHT22;66364;52.622;7.746;2023-06-19T01:49:54;22.30;38.80
77305;DHT22;66364;52.622;7.746;2023-06-19T01:51:55;22.30;37.50
77305;DHT22;66364;52.622;7.746;2023-06-19T01:53:56;22.30;37.70
77305;DHT22;66364;52.622;7.746;2023-06-19T01:55:58;22.30;37.80
77305;DHT22;66364;52.622;7.746;2023-06-19T01:57:59;22.30;37.80
77305;DHT22;66364;52.622;7.746;2023-06-19T02:00:00;22.30;38.20
77305;DHT22;66364;52.622;7.746;2023-06-19T02:02:00;22.20;38.00
77305;DHT22;66364;52.622;7.746;2023-06-19T02:04:01;22.20;40.60
77305;DHT22;66364;52.622;7.746;2023-06-19T02:06:02;22.20;42.60
77305;DHT22;66364;52.622;7.746;2023-06-19T02:08:04;22.10;43.70
77305;DHT22;66364;52.622;7.746;2023-06-19T02:10:05;22.00;45.70
77305;DHT22;66364;52.622;7.746;2023-06-19T02:12:07;21.90;46.20
77305;DHT22;66364;52.622;7.746;2023-06-19T02:14:09;21.90;47.90
77305;DHT22;66364;52.622;7.746;2023-06-19T02:16:20;21.80;48.70
77305;DHT22;66364;52.622;7.746;2023-06-19T02:18:21;21.70;48.90
77305;DHT22;66364;52.622;7.746;2023-06-19T02:20:23;21.70;46.10
77305;DHT22;66364;52.622;7.746;2023-06-19T02:22:24;21.60;46.80
77305;DHT22;66364;52.622;7.746;2023-06-19T02:24:25;21.60;46.00
77305;DHT22;66364;52.622;7.746;2023-06-19T02:26:27;21.60;49.00
77305;DHT22;66364;52.622;7.746;2023-06-19T02:28:27;21.50;50.00
77305;DHT22;66364;52.622;7.746;2023-06-19T02:30:29;21.50;51.10
77305;DHT22;66364;52.622;7.746;2023-06-19T02:32:30;21.50;51.60
77305;DHT22;66364;52.622;7.746;2023-06-19T02:34:31;21.40;53.10
77305;DHT22;66364;52.622;7.746;2023-06-19T02:36:32;21.40;53.80
77305;DHT22;66364;52.622;7.746;2023-06-19T02:38:32;21.30;54.00
77305;DHT22;66364;52.622;7.746;2023-06-19T02:40:33;21.30;55.20
77305;DHT22;66364;52.622;7.746;2023-06-19T02:42:35;21.20;55.70
77305;DHT22;66364;52.622;7.746;2023-06-19T02:44:36;21.20;56.10
77305;DHT22;66364;52.622;7.746;2023-06-19T02:46:38;21.20;54.10
77305;DHT22;66364;52.622;7.746;2023-06-19T02:48:38;21.20;54.60
77305;DHT22;66364;52.622;7.746;2023-06-19T02:50:39;21.20;54.40
77305;DHT22;66364;52.622;7.746;2023-06-19T02:52:40;21.30;56.60
77305;DHT22;66364;52.622;7.746;2023-06-19T02:54:43;21.30;56.80
77305;DHT22;66364;52.622;7.746;2023-06-19T02:56:45;21.30;55.70
77305;DHT22;66364;52.622;7.746;2023-06-19T02:58:46;21.30;51.80
77305;DHT22;66364;52.622;7.746;2023-06-19T03:00:48;21.30;52.50
77305;DHT22;66364;52.622;7.746;2023-06-19T03:02:49;21.40;54.20
77305;DHT22;66364;52.622;7.746;2023-06-19T03:04:51;21.40;51.80
77305;DHT22;66364;52.622;7.746;2023-06-19T03:06:53;21.30;52.00
77305;DHT22;66364;52.622;7.746;2023-06-19T03:08:54;21.30;55.80
77305;DHT22;66364;52.622;7.746;2023-06-19T03:10:55;21.30;54.50
77305;DHT22;66364;52.622;7.746;2023-06-19T03:12:56;20.90;54.60
77305;DHT22;66364;52.622;7.746;2023-06-19T03:14:57;21.20;57.90
77305;DHT22;66364;52.622;7.746;2023-06-19T03:16:57;20.70;60.00
77305;DHT22;66364;52.622;7.746;2023-06-19T03:18:58;21.10;61.10
77305;DHT22;66364;52.622;7.746;2023-06-19T03:21:00;21.10;61.80
77305;DHT22;66364;52.622;7.746;2023-06-19T03:23:00;21.10;64.40
77305;DHT22;66364;52.622;7.746;2023-06-19T03:25:02;20.90;66.30
77305;DHT22;66364;52.622;7.746;2023-06-19T03:27:03;20.80;68.20
77305;DHT22;66364;52.622;7.746;2023-06-19T03:29:04;20.80;71.20
77305;DHT22;66364;52.622;7.746;2023-06-19T03:31:05;20.70;75.80
77305;DHT22;66364;52.622;7.746;2023-06-19T03:33:08;20.60;78.70
77305;DHT22;66364;52.622;7.746;2023-06-19T03:35:10;20.60;80.90
77305;DHT22;66364;52.622;7.746;2023-06-19T03:37:13;20.50;83.90
77305;DHT22;66364;52.622;7.746;2023-06-19T03:39:14;20.50;83.50
77305;DHT22;66364;52.622;7.746;2023-06-19T03:41:15;20.40;81.20
77305;DHT22;66364;52.622;7.746;2023-06-19T03:43:18;20.30;87.00
77305;DHT22;66364;52.622;7.746;2023-06-19T03:45:19;20.40;90.80
77305;DHT22;66364;52.622;7.746;2023-06-19T03:47:22;20.40;91.50
77305;DHT22;66364;52.622;7.746;2023-06-19T03:49:25;20.40;93.20
77305;DHT22;66364;52.622;7.746;2023-06-19T03:51:25;20.40;93.60
77305;DHT22;66364;52.622;7.746;2023-06-19T03:53:27;20.40;95.40
77305;DHT22;66364;52.622;7.746;2023-06-19T03:55:28;20.40;95.70
77305;DHT22;66364;52.622;7.746;2023-06-19T03:57:30;20.30;95.70
77305;DHT22;66364;52.622;7.746;2023-06-19T03:59:32;20.30;98.10
77305;DHT22;66364;52.622;7.746;2023-06-19T04:01:32;20.30;99.90
77305;DHT22;66364;52.622;7.746;2023-06-19T04:03:33;20.30;99.90
77305;DHT22;66364;52.622;7.746;2023-06-19T04:05:35;20.30;99.90
77305;DHT22;66364;52.622;7.746;2023-06-19T04:07:36;20.40;99.90
77305;DHT22;66364;52.622;7.746;2023-06-19T04:09:38;20.40;99.90
77305;DHT22;66364;52.622;7.746;2023-06-19T04:11:39;20.40;99.90
77305;DHT22;66364;52.622;7.746;2023-06-19T04:13:39;20.40;99.90
77305;DHT22;66364;52.622;7.746;2023-06-19T04:15:40;20.30;99.90
77305;DHT22;66364;52.622;7.746;2023-06-19T04:17:42;20.30;99.90
77305;DHT22;66364;52.622;7.746;2023-06-19T04:19:43;20.30;99.90
77305;DHT22;66364;52.622;7.746;2023-06-19T04:21:44;20.40;99.90
77305;DHT22;66364;52.622;7.746;2023-06-19T04:23:45;20.50;99.90
77305;DHT22;66364;52.622;7.746;2023-06-19T04:25:46;20.50;99.90
77305;DHT22;66364;52.622;7.746;2023-06-19T04:27:47;20.50;99.90
77305;DHT22;66364;52.622;7.746;2023-06-19T04:29:48;20.50;99.90
77305;DHT22;66364;52.622;7.746;2023-06-19T04:31:48;20.40;99.90
77305;DHT22;66364;52.622;7.746;2023-06-19T04:33:49;20.40;99.90
77305;DHT22;66364;52.622;7.746;2023-06-19T04:35:50;20.50;99.90
77305;DHT22;66364;52.622;7.746;2023-06-19T04:37:52;20.50;99.90
77305;DHT22;66364;52.622;7.746;2023-06-19T04:39:54;20.50;99.90
77305;DHT22;66364;52.622;7.746;2023-06-19T04:41:57;20.60;99.90
77305;DHT22;66364;52.622;7.746;2023-06-19T04:43:57;20.60;99.90
77305;DHT22;66364;52.622;7.746;2023-06-19T04:46:08;20.60;99.90
77305;DHT22;66364;52.622;7.746;2023-06-19T04:48:09;20.60;99.90
77305;DHT22;66364;52.622;7.746;2023-06-19T04:50:10;20.60;99.90
77305;DHT22;66364;52.622;7.746;2023-06-19T04:52:11;20.70;99.90
77305;DHT22;66364;52.622;7.746;2023-06-19T04:54:12;20.80;99.90
77305;DHT22;66364;52.622;7.746;2023-06-19T04:56:16;20.90;99.90
77305;DHT22;66364;52.622;7.746;2023-06-19T04:58:17;21.10;96.50
77305;DHT22;66364;52.622;7.746;2023-06-19T05:00:21;21.20;92.90
77305;DHT22;66364;52.622;7.746;2023-06-19T05:02:22;21.30;93.50
77305;DHT22;66364;52.622;7.746;2023-06-19T05:04:23;21.30;94.40
77305;DHT22;66364;52.622;7.746;2023-06-19T05:06:24;21.40;96.00
77305;DHT22;66364;52.622;7.746;2023-06-19T05:08:25;21.40;97.90
77305;DHT22;66364;52.622;7.746;2023-06-19T05:10:26;21.30;94.00
77305;DHT22;66364;52.622;7.746;2023-06-19T05:12:26;21.40;93.00
77305;DHT22;66364;52.622;7.746;2023-06-19T05:14:27;21.50;90.20
77305;DHT22;66364;52.622;7.746;2023-06-19T05:16:28;21.50;90.20
77305;DHT22;66364;52.622;7.746;2023-06-19T05:18:39;21.60;86.30
77305;DHT22;66364;52.622;7.746;2023-06-19T05:20:40;21.70;83.50
77305;DHT22;66364;52.622;7.746;2023-06-19T05:22:41;21.30;79.00
77305;DHT22;66364;52.622;7.746;2023-06-19T05:24:42;21.80;77.60
77305;DHT22;66364;52.622;7.746;2023-06-19T05:26:43;21.80;78.40
77305;DHT22;66364;52.622;7.746;2023-06-19T05:28:44;21.90;77.10
77305;DHT22;66364;52.622;7.746;2023-06-19T05:30:45;22.00;77.00
77305;DHT22;66364;52.622;7.746;2023-06-19T05:32:46;22.00;76.40
77305;DHT22;66364;52.622;7.746;2023-06-19T05:34:47;22.10;75.60
77305;DHT22;66364;52.622;7.746;2023-06-19T05:36:48;22.10;76.00
77305;DHT22;66364;52.622;7.746;2023-06-19T05:38:49;22.10;77.00
77305;DHT22;66364;52.622;7.746;2023-06-19T05:40:50;22.10;76.40
77305;DHT22;66364;52.622;7.746;2023-06-19T05:42:51;22.10;77.80
77305;DHT22;66364;52.622;7.746;2023-06-19T05:44:52;22.10;77.50
77305;DHT22;66364;52.622;7.746;2023-06-19T05:46:54;22.00;78.60
77305;DHT22;66364;52.622;7.746;2023-06-19T05:48:55;22.10;79.60
77305;DHT22;66364;52.622;7.746;2023-06-19T05:50:56;22.10;78.90
77305;DHT22;66364;52.622;7.746;2023-06-19T05:52:57;22.10;80.10
77305;DHT22;66364;52.622;7.746;2023-06-19T05:54:58;22.20;79.10
77305;DHT22;66364;52.622;7.746;2023-06-19T05:56:59;22.20;80.30
77305;DHT22;66364;52.622;7.746;2023-06-19T05:59:00;22.20;79.50
77305;DHT22;66364;52.622;7.746;2023-06-19T06:01:01;22.30;79.40
77305;DHT22;66364;52.622;7.746;2023-06-19T06:03:02;22.30;78.30
77305;DHT22;66364;52.622;7.746;2023-06-19T06:05:05;22.30;78.50
77305;DHT22;66364;52.622;7.746;2023-06-19T06:07:06;22.20;79.10
77305;DHT22;66364;52.622;7.746;2023-06-19T06:09:07;22.30;81.00
77305;DHT22;66364;52.622;7.746;2023-06-19T06:11:08;22.40;80.90
77305;DHT22;66364;52.622;7.746;2023-06-19T06:13:08;22.40;79.10
77305;DHT22;66364;52.622;7.746;2023-06-19T06:15:10;22.40;80.10
77305;DHT22;66364;52.622;7.746;2023-06-19T06:17:11;22.50;80.30
77305;DHT22;66364;52.622;7.746;2023-06-19T06:19:12;22.30;79.80
77305;DHT22;66364;52.622;7.746;2023-06-19T06:21:13;22.40;83.70
77305;DHT22;66364;52.622;7.746;2023-06-19T06:23:14;22.50;81.30
77305;DHT22;66364;52.622;7.746;2023-06-19T06:25:15;22.50;82.00
77305;DHT22;66364;52.622;7.746;2023-06-19T06:27:15;22.40;82.40
77305;DHT22;66364;52.622;7.746;2023-06-19T06:29:16;22.40;80.60
77305;DHT22;66364;52.622;7.746;2023-06-19T06:31:17;22.40;81.90
77305;DHT22;66364;52.622;7.746;2023-06-19T06:33:18;22.40;81.40
77305;DHT22;66364;52.622;7.746;2023-06-19T06:35:19;22.40;83.20
77305;DHT22;66364;52.622;7.746;2023-06-19T06:37:20;22.50;86.00
77305;DHT22;66364;52.622;7.746;2023-06-19T06:39:21;22.60;82.00
77305;DHT22;66364;52.622;7.746;2023-06-19T06:41:22;22.60;83.90
77305;DHT22;66364;52.622;7.746;2023-06-19T06:43:23;22.70;84.20
77305;DHT22;66364;52.622;7.746;2023-06-19T06:45:24;22.70;81.50
77305;DHT22;66364;52.622;7.746;2023-06-19T06:47:25;22.60;84.90
77305;DHT22;66364;52.622;7.746;2023-06-19T06:49:26;22.60;84.00
77305;DHT22;66364;52.622;7.746;2023-06-19T06:51:27;22.40;84.80
77305;DHT22;66364;52.622;7.746;2023-06-19T06:53:28;22.40;89.20
77305;DHT22;66364;52.622;7.746;2023-06-19T06:55:29;22.40;89.20
77305;DHT22;66364;52.622;7.746;2023-06-19T06:57:30;22.50;91.60
77305;DHT22;66364;52.622;7.746;2023-06-19T06:59:31;22.50;91.80
77305;DHT22;66364;52.622;7.746;2023-06-19T07:01:32;22.60;91.60
77305;DHT22;66364;52.622;7.746;2023-06-19T07:03:32;22.60;92.40
77305;DHT22;66364;52.622;7.746;2023-06-19T07:05:33;22.40;94.30
77305;DHT22;66364;52.622;7.746;2023-06-19T07:07:34;22.50;96.60
77305;DHT22;66364;52.622;7.746;2023-06-19T07:09:35;22.70;95.30
77305;DHT22;66364;52.622;7.746;2023-06-19T07:11:36;22.70;94.70
77305;DHT22;66364;52.622;7.746;2023-06-19T07:13:37;22.60;96.30
77305;DHT22;66364;52.622;7.746;2023-06-19T07:15:38;22.60;95.90
77305;DHT22;66364;52.622;7.746;2023-06-19T07:17:40;22.60;97.90
77305;DHT22;66364;52.622;7.746;2023-06-19T07:19:41;22.70;96.20
77305;DHT22;66364;52.622;7.746;2023-06-19T07:21:43;22.70;96.40
77305;DHT22;66364;52.622;7.746;2023-06-19T07:23:45;22.90;97.30
77305;DHT22;66364;52.622;7.746;2023-06-19T07:25:47;23.10;96.00
77305;DHT22;66364;52.622;7.746;2023-06-19T07:27:48;23.00;92.60
77305;DHT22;66364;52.622;7.746;2023-06-19T07:29:49;23.10;93.50
77305;DHT22;66364;52.622;7.746;2023-06-19T07:31:50;23.10;93.10
77305;DHT22;66364;52.622;7.746;2023-06-19T07:33:50;23.10;92.90
77305;DHT22;66364;52.622;7.746;2023-06-19T07:35:51;23.20;92.10
77305;DHT22;66364;52.622;7.746;2023-06-19T07:37:52;23.20;92.10
77305;DHT22;66364;52.622;7.746;2023-06-19T07:39:54;23.00;93.60
77305;DHT22;66364;52.622;7.746;2023-06-19T07:41:55;22.90;94.80
77305;DHT22;66364;52.622;7.746;2023-06-19T07:43:56;23.00;95.60
77305;DHT22;66364;52.622;7.746;2023-06-19T07:45:57;23.00;94.40
77305;DHT22;66364;52.622;7.746;2023-06-19T07:47:59;23.10;93.70
77305;DHT22;66364;52.622;7.746;2023-06-19T07:50:00;23.00;94.00
77305;DHT22;66364;52.622;7.746;2023-06-19T07:52:02;23.00;94.30
77305;DHT22;66364;52.622;7.746;2023-06-19T07:54:02;22.70;96.20
77305;DHT22;66364;52.622;7.746;2023-06-19T07:56:04;22.80;96.20
77305;DHT22;66364;52.622;7.746;2023-06-19T07:58:04;22.70;97.30
77305;DHT22;66364;52.622;7.746;2023-06-19T08:00:06;22.80;98.20
77305;DHT22;66364;52.622;7.746;2023-06-19T08:02:07;22.70;98.90
77305;DHT22;66364;52.622;7.746;2023-06-19T08:04:08;22.60;99.90
77305;DHT22;66364;52.622;7.746;2023-06-19T08:06:09;22.50;99.90
77305;DHT22;66364;52.622;7.746;2023-06-19T08:08:12;22.30;99.90
77305;DHT22;66364;52.622;7.746;2023-06-19T08:10:13;22.10;99.90
77305;DHT22;66364;52.622;7.746;2023-06-19T08:12:14;22.10;99.90
77305;DHT22;66364;52.622;7.746;2023-06-19T08:14:15;22.20;99.90
77305;DHT22;66364;52.622;7.746;2023-06-19T08:16:16;22.20;99.90
77305;DHT22;66364;52.622;7.746;2023-06-19T08:18:17;22.20;99.90
77305;DHT22;66364;52.622;7.746;2023-06-19T08:20:18;22.20;99.90
77305;DHT22;66364;52.622;7.746;2023-06-19T08:22:19;22.10;99.90
77305;DHT22;66364;52.622;7.746;2023-06-19T08:24:20;22.10;99.90
77305;DHT22;66364;52.622;7.746;2023-06-19T08:26:21;22.20;99.90
77305;DHT22;66364;52.622;7.746;2023-06-19T08:28:22;22.10;99.90
77305;DHT22;66364;52.622;7.746;2023-06-19T08:30:23;21.90;99.90
77305;DHT22;66364;52.622;7.746;2023-06-19T08:32:25;22.00;99.90
77305;DHT22;66364;52.622;7.746;2023-06-19T08:34:25;21.80;99.90
77305;DHT22;66364;52.622;7.746;2023-06-19T08:36:27;22.00;99.90
77305;DHT22;66364;52.622;7.746;2023-06-19T08:38:28;22.00;99.90
77305;DHT22;66364;52.622;7.746;2023-06-19T08:40:29;22.10;99.90
77305;DHT22;66364;52.622;7.746;2023-06-19T08:42:29;22.20;99.90
77305;DHT22;66364;52.622;7.746;2023-06-19T08:44:30;22.30;99.90
77305;DHT22;66364;52.622;7.746;2023-06-19T08:46:31;22.40;99.90
77305;DHT22;66364;52.622;7.746;2023-06-19T08:48:35;22.50;99.90
77305;DHT22;66364;52.622;7.746;2023-06-19T08:50:36;22.30;99.90
77305;DHT22;66364;52.622;7.746;2023-06-19T08:52:37;22.30;99.90
77305;DHT22;66364;52.622;7.746;2023-06-19T08:54:38;22.20;99.90
77305;DHT22;66364;52.622;7.746;2023-06-19T08:56:38;22.20;99.90
77305;DHT22;66364;52.622;7.746;2023-06-19T08:58:39;22.30;99.90
77305;DHT22;66364;52.622;7.746;2023-06-19T09:00:40;22.40;99.90
77305;DHT22;66364;52.622;7.746;2023-06-19T09:02:43;22.40;99.90
77305;DHT22;66364;52.622;7.746;2023-06-19T09:04:44;22.20;99.90
77305;DHT22;66364;52.622;7.746;2023-06-19T09:06:47;22.10;99.90
77305;DHT22;66364;52.622;7.746;2023-06-19T09:08:59;22.20;99.90
77305;DHT22;66364;52.622;7.746;2023-06-19T09:11:03;22.00;99.90
77305;DHT22;66364;52.622;7.746;2023-06-19T09:13:05;22.00;99.90
77305;DHT22;66364;52.622;7.746;2023-06-19T09:15:13;22.00;99.90
77305;DHT22;66364;52.622;7.746;2023-06-19T09:17:20;22.00;99.90
77305;DHT22;66364;52.622;7.746;2023-06-19T09:19:21;22.00;99.90
77305;DHT22;66364;52.622;7.746;2023-06-19T09:21:22;22.20;99.90
77305;DHT22;66364;52.622;7.746;2023-06-19T09:23:23;22.10;99.90
77305;DHT22;66364;52.622;7.746;2023-06-19T09:25:25;22.00;99.90
77305;DHT22;66364;52.622;7.746;2023-06-19T09:27:33;22.00;99.90
77305;DHT22;66364;52.622;7.746;2023-06-19T09:29:37;22.10;99.90
77305;DHT22;66364;52.622;7.746;2023-06-19T09:31:39;22.20;99.90
77305;DHT22;66364;52.622;7.746;2023-06-19T09:33:40;22.20;99.90
77305;DHT22;66364;52.622;7.746;2023-06-19T09:35:41;22.30;99.90
77305;DHT22;66364;52.622;7.746;2023-06-19T09:37:42;22.40;99.90
77305;DHT22;66364;52.622;7.746;2023-06-19T09:39:45;22.50;99.90
77305;DHT22;66364;52.622;7.746;2023-06-19T09:41:49;22.40;99.90
77305;DHT22;66364;52.622;7.746;2023-06-19T09:43:54;22.50;99.90
77305;DHT22;66364;52.622;7.746;2023-06-19T09:45:56;22.60;99.90
77305;DHT22;66364;52.622;7.746;2023-06-19T09:47:58;22.80;99.90
77305;DHT22;66364;52.622;7.746;2023-06-19T09:49:59;23.00;99.90
77305;DHT22;66364;52.622;7.746;2023-06-19T09:52:01;23.20;99.90
77305;DHT22;66364;52.622;7.746;2023-06-19T09:54:04;23.40;99.90
77305;DHT22;66364;52.622;7.746;2023-06-19T09:56:05;23.50;99.90
77305;DHT22;66364;52.622;7.746;2023-06-19T09:58:07;23.50;99.90
77305;DHT22;66364;52.622;7.746;2023-06-19T10:00:09;23.20;98.90
77305;DHT22;66364;52.622;7.746;2023-06-19T10:02:11;23.10;99.90
77305;DHT22;66364;52.622;7.746;2023-06-19T10:04:13;23.10;99.90
77305;DHT22;66364;52.622;7.746;2023-06-19T10:06:16;22.90;99.90
77305;DHT22;66364;52.622;7.746;2023-06-19T10:08:26;22.70;99.90
77305;DHT22;66364;52.622;7.746;2023-06-19T10:10:24;22.60;99.90
77305;DHT22;66364;52.622;7.746;2023-06-19T10:12:47;22.50;99.90
77305;DHT22;66364;52.622;7.746;2023-06-19T10:14:47;22.50;99.90
77305;DHT22;66364;52.622;7.746;2023-06-19T10:16:48;22.50;99.90
77305;DHT22;66364;52.622;7.746;2023-06-19T10:18:50;22.60;99.90
77305;DHT22;66364;52.622;7.746;2023-06-19T10:20:51;22.60;99.90
77305;DHT22;66364;52.622;7.746;2023-06-19T10:25:19;22.70;99.90
77305;DHT22;66364;52.622;7.746;2023-06-19T10:27:21;22.60;99.90
77305;DHT22;66364;52.622;7.746;2023-06-19T10:29:22;22.50;99.90
77305;DHT22;66364;52.622;7.746;2023-06-19T10:31:23;22.50;99.90
77305;DHT22;66364;52.622;7.746;2023-06-19T10:33:26;22.50;99.90
77305;DHT22;66364;52.622;7.746;2023-06-19T10:35:27;22.50;99.90
77305;DHT22;66364;52.622;7.746;2023-06-19T10:37:34;22.50;99.90
77305;DHT22;66364;52.622;7.746;2023-06-19T10:39:35;22.70;99.90
77305;DHT22;66364;52.622;7.746;2023-06-19T10:41:39;22.70;99.90
77305;DHT22;66364;52.622;7.746;2023-06-19T10:43:41;22.60;99.90
77305;DHT22;66364;52.622;7.746;2023-06-19T10:45:42;22.60;99.90
77305;DHT22;66364;52.622;7.746;2023-06-19T10:47:43;22.70;99.90
77305;DHT22;66364;52.622;7.746;2023-06-19T10:49:44;22.90;99.90
77305;DHT22;66364;52.622;7.746;2023-06-19T10:51:47;23.10;99.90
77305;DHT22;66364;52.622;7.746;2023-06-19T10:53:49;23.20;99.90
77305;DHT22;66364;52.622;7.746;2023-06-19T10:56:00;23.40;97.00
77305;DHT22;66364;52.622;7.746;2023-06-19T10:57:57;23.50;95.00
77305;DHT22;66364;52.622;7.746;2023-06-19T10:59:58;23.60;92.90
77305;DHT22;66364;52.622;7.746;2023-06-19T11:02:00;24.10;93.60
77305;DHT22;66364;52.622;7.746;2023-06-19T11:04:10;24.70;86.70
77305;DHT22;66364;52.622;7.746;2023-06-19T11:06:19;25.00;75.70
77305;DHT22;66364;52.622;7.746;2023-06-19T11:08:21;25.00;72.60
77305;DHT22;66364;52.622;7.746;2023-06-19T11:10:24;24.60;71.60
77305;DHT22;66364;52.622;7.746;2023-06-19T11:12:26;24.40;74.50
77305;DHT22;66364;52.622;7.746;2023-06-19T11:14:31;24.30;74.60
77305;DHT22;66364;52.622;7.746;2023-06-19T11:16:33;24.40;74.50
77305;DHT22;66364;52.622;7.746;2023-06-19T11:18:34;24.60;72.30
77305;DHT22;66364;52.622;7.746;2023-06-19T11:20:50;24.60;71.30
77305;DHT22;66364;52.622;7.746;2023-06-19T11:22:59;24.80;71.00
77305;DHT22;66364;52.622;7.746;2023-06-19T11:25:05;25.10;68.50
77305;DHT22;66364;52.622;7.746;2023-06-19T11:27:06;24.90;67.10
77305;DHT22;66364;52.622;7.746;2023-06-19T11:29:24;24.70;67.20
77305;DHT22;66364;52.622;7.746;2023-06-19T11:31:26;24.80;67.70
77305;DHT22;66364;52.622;7.746;2023-06-19T11:33:27;25.30;66.80
77305;DHT22;66364;52.622;7.746;2023-06-19T11:35:34;25.80;65.00
77305;DHT22;66364;52.622;7.746;2023-06-19T11:37:35;26.20;60.60
77305;DHT22;66364;52.622;7.746;2023-06-19T11:39:36;26.50;54.70
77305;DHT22;66364;52.622;7.746;2023-06-19T11:41:37;26.70;51.50
77305;DHT22;66364;52.622;7.746;2023-06-19T11:43:39;26.90;47.80
77305;DHT22;66364;52.622;7.746;2023-06-19T11:45:47;26.70;46.10
77305;DHT22;66364;52.622;7.746;2023-06-19T11:47:54;26.60;49.40
77305;DHT22;66364;52.622;7.746;2023-06-19T11:49:56;26.80;47.00
77305;DHT22;66364;52.622;7.746;2023-06-19T11:51:56;26.30;45.10
77305;DHT22;66364;52.622;7.746;2023-06-19T11:53:57;25.90;46.60
77305;DHT22;66364;52.622;7.746;2023-06-19T11:55:58;25.60;49.00
77305;DHT22;66364;52.622;7.746;2023-06-19T11:57:59;25.60;49.50
77305;DHT22;66364;52.622;7.746;2023-06-19T12:00:00;25.80;49.50
77305;DHT22;66364;52.622;7.746;2023-06-19T12:02:01;26.20;48.80
77305;DHT22;66364;52.622;7.746;2023-06-19T12:04:02;26.40;45.30
77305;DHT22;66364;52.622;7.746;2023-06-19T12:06:04;26.10;47.60
77305;DHT22;66364;52.622;7.746;2023-06-19T12:08:05;26.00;48.30
77305;DHT22;66364;52.622;7.746;2023-06-19T12:10:06;25.90;48.50
77305;DHT22;66364;52.622;7.746;2023-06-19T12:12:08;25.60;47.60
77305;DHT22;66364;52.622;7.746;2023-06-19T12:14:09;25.70;47.70
77305;DHT22;66364;52.622;7.746;2023-06-19T12:16:10;26.20;48.40
77305;DHT22;66364;52.622;7.746;2023-06-19T12:18:11;26.60;46.30
77305;DHT22;66364;52.622;7.746;2023-06-19T12:20:12;26.90;45.80
77305;DHT22;66364;52.622;7.746;2023-06-19T12:22:13;26.70;41.40
77305;DHT22;66364;52.622;7.746;2023-06-19T12:24:14;26.50;43.90
77305;DHT22;66364;52.622;7.746;2023-06-19T12:26:15;26.20;44.00
77305;DHT22;66364;52.622;7.746;2023-06-19T12:28:16;26.50;44.20
77305;DHT22;66364;52.622;7.746;2023-06-19T12:30:17;26.90;43.00
77305;DHT22;66364;52.622;7.746;2023-06-19T12:32:18;27.30;41.50
77305;DHT22;66364;52.622;7.746;2023-06-19T12:34:19;27.10;40.50
77305;DHT22;66364;52.622;7.746;2023-06-19T12:36:20;27.10;40.00
77305;DHT22;66364;52.622;7.746;2023-06-19T12:38:22;27.20;40.30
77305;DHT22;66364;52.622;7.746;2023-06-19T12:40:24;27.10;39.00
77305;DHT22;66364;52.622;7.746;2023-06-19T12:42:24;27.40;37.40
77305;DHT22;66364;52.622;7.746;2023-06-19T12:44:25;27.30;35.50
77305;DHT22;66364;52.622;7.746;2023-06-19T12:46:26;27.40;37.10
77305;DHT22;66364;52.622;7.746;2023-06-19T12:48:27;27.30;36.40
77305;DHT22;66364;52.622;7.746;2023-06-19T12:50:28;27.10;38.50
77305;DHT22;66364;52.622;7.746;2023-06-19T12:52:29;27.30;38.10
77305;DHT22;66364;52.622;7.746;2023-06-19T12:54:30;27.30;39.00